Time,TemperatureF,DewpointF,PressureIn,WindDirection,WindDirectionDegrees,WindSpeedMPH,WindSpeedGustMPH,Humidity,HourlyPrecipIn,Conditions,Clouds,dailyrainin,SolarRadiationWatts/m^2,SoftwareType,DateUTC
2013-02-15 00:12:00,33.0,32.0,-100.00,West,273,0.0,1.0,98,0.00,,,0.00,0.000000,,2013-02-15 05:12:00,
2013-02-15 00:22:00,33.0,32.0,-100.00,West,273,0.0,1.0,98,0.00,,,0.00,0.000000,,2013-02-15 05:22:00,
2013-02-15 00:32:00,33.0,32.0,-100.00,West,273,0.0,1.0,98,0.00,,,0.00,0.000000,,2013-02-15 05:32:00,
2013-02-15 00:42:00,33.0,32.0,-100.00,West,273,0.0,1.0,98,0.00,,,0.00,0.000000,,2013-02-15 05:42:00,
2013-02-15 00:52:00,33.0,32.0,-100.00,WNW,288,0.0,2.0,98,0.00,,,0.00,0.000000,,2013-02-15 05:52:00,
2013-02-15 01:11:00,33.0,32.0,-100.00,WNW,288,0.0,2.0,98,0.00,,,0.00,0.000000,,2013-02-15 06:11:00,
2013-02-15 01:22:00,33.0,32.0,-100.00,WNW,288,0.0,2.0,98,0.00,,,0.00,0.000000,,2013-02-15 06:22:00,
2013-02-15 01:32:00,33.0,32.0,-100.00,WNW,288,0.0,2.0,98,0.00,,,0.00,0.000000,,2013-02-15 06:32:00,
2013-02-15 01:42:00,33.0,32.0,-100.00,WNW,288,0.0,2.0,98,0.00,,,0.00,0.000000,,2013-02-15 06:42:00,
2013-02-15 01:52:00,33.0,32.0,-100.00,NNW,335,0.0,0.0,98,0.00,,,0.00,0.000000,,2013-02-15 06:52:00,
2013-02-15 02:11:00,33.0,32.0,-100.00,NNW,335,0.0,0.0,98,0.00,,,0.00,0.000000,,2013-02-15 07:11:00,
2013-02-15 02:21:00,33.0,32.0,-100.00,NNW,335,0.0,0.0,98,0.00,,,0.00,0.000000,,2013-02-15 07:21:00,
2013-02-15 02:32:00,33.0,32.0,-100.00,NNW,335,0.0,0.0,98,0.00,,,0.00,0.000000,,2013-02-15 07:32:00,
2013-02-15 02:42:00,33.0,32.0,-100.00,NNW,335,0.0,0.0,98,0.00,,,0.00,0.000000,,2013-02-15 07:42:00,
2013-02-15 02:52:00,33.0,32.0,-100.00,NE,35,0.0,1.0,98,0.00,,,0.00,0.000000,,2013-02-15 07:52:00,
2013-02-15 03:11:00,33.0,32.0,-100.00,NE,35,0.0,1.0,98,0.00,,,0.00,0.000000,,2013-02-15 08:11:00,
2013-02-15 03:21:00,33.0,32.0,-100.00,NE,35,0.0,1.0,98,0.00,,,0.00,0.000000,,2013-02-15 08:21:00,
2013-02-15 03:32:00,33.0,32.0,-100.00,NE,35,0.0,1.0,98,0.00,,,0.00,0.000000,,2013-02-15 08:32:00,
2013-02-15 03:42:00,33.0,32.0,-100.00,NE,35,0.0,1.0,98,0.00,,,0.00,0.000000,,2013-02-15 08:42:00,
2013-02-15 03:52:00,32.0,32.0,-100.00,NE,56,0.0,2.0,98,0.00,,,0.00,0.000000,,2013-02-15 08:52:00,
2013-02-15 04:12:00,32.0,32.0,-100.00,NE,56,0.0,2.0,98,0.00,,,0.00,0.000000,,2013-02-15 09:12:00,
2013-02-15 04:22:00,32.0,32.0,-100.00,NE,56,0.0,2.0,98,0.00,,,0.00,0.000000,,2013-02-15 09:22:00,
2013-02-15 04:32:00,32.0,32.0,-100.00,NE,56,0.0,2.0,98,0.00,,,0.00,0.000000,,2013-02-15 09:32:00,
2013-02-15 04:42:00,32.0,32.0,-100.00,NE,56,0.0,2.0,98,0.00,,,0.00,0.000000,,2013-02-15 09:42:00,
2013-02-15 04:52:00,32.0,32.0,-100.00,ENE,70,0.0,4.0,98,0.00,,,0.00,0.000000,,2013-02-15 09:52:00,
2013-02-15 05:21:00,32.0,32.0,-100.00,ENE,70,0.0,4.0,98,0.00,,,0.00,0.000000,,2013-02-15 10:21:00,
2013-02-15 05:32:00,32.0,32.0,-100.00,ENE,70,0.0,4.0,98,0.00,,,0.00,0.000000,,2013-02-15 10:32:00,
2013-02-15 05:42:00,32.0,32.0,-100.00,ENE,70,0.0,4.0,98,0.00,,,0.00,0.000000,,2013-02-15 10:42:00,
2013-02-15 05:52:00,32.0,32.0,-100.00,NE,55,0.0,3.0,98,0.00,,,0.00,0.000000,,2013-02-15 10:52:00,
2013-02-15 06:11:00,32.0,32.0,-100.00,NE,55,0.0,3.0,98,0.00,,,0.00,0.000000,,2013-02-15 11:11:00,
2013-02-15 06:23:00,32.0,32.0,-100.00,NE,55,0.0,3.0,98,0.00,,,0.00,0.000000,,2013-02-15 11:23:00,
2013-02-15 06:32:00,32.0,32.0,-100.00,NE,55,0.0,3.0,98,0.00,,,0.00,0.000000,,2013-02-15 11:32:00,
2013-02-15 06:42:00,32.0,32.0,-100.00,NE,55,0.0,3.0,98,0.00,,,0.00,0.000000,,2013-02-15 11:42:00,
2013-02-15 06:52:00,32.0,32.0,-100.00,North,0,0.0,2.0,98,0.00,,,0.00,0.000000,,2013-02-15 11:52:00,
2013-02-15 07:22:00,32.0,32.0,-100.00,North,0,0.0,2.0,98,0.00,,,0.00,0.000000,,2013-02-15 12:22:00,
2013-02-15 07:32:00,32.0,32.0,-100.00,North,0,0.0,2.0,98,0.00,,,0.00,0.000000,,2013-02-15 12:32:00,
2013-02-15 07:42:00,32.0,32.0,-100.00,North,0,0.0,2.0,98,0.00,,,0.00,0.000000,,2013-02-15 12:42:00,
2013-02-15 07:52:00,34.0,34.0,-100.00,North,0,0.0,2.0,98,0.00,,,0.00,27.000000,,2013-02-15 12:52:00,
2013-02-15 08:11:00,34.0,34.0,-100.00,North,0,0.0,2.0,98,0.00,,,0.00,27.000000,,2013-02-15 13:11:00,
2013-02-15 08:22:00,34.0,34.0,-100.00,North,0,0.0,2.0,98,0.00,,,0.00,27.000000,,2013-02-15 13:22:00,
2013-02-15 08:32:00,34.0,34.0,-100.00,North,0,0.0,2.0,98,0.00,,,0.00,27.000000,,2013-02-15 13:32:00,
2013-02-15 08:42:00,34.0,34.0,-100.00,North,0,0.0,2.0,98,0.00,,,0.00,27.000000,,2013-02-15 13:42:00,
2013-02-15 09:22:00,46.0,36.0,-100.00,NE,35,0.0,3.0,69,0.00,,,0.00,196.000000,,2013-02-15 14:22:00,
2013-02-15 09:52:00,51.0,37.0,-100.00,ENE,69,2.0,7.0,58,0.00,,,0.00,401.000000,,2013-02-15 14:52:00,
2013-02-15 10:22:00,51.0,37.0,-100.00,ENE,69,2.0,7.0,58,0.00,,,0.00,401.000000,,2013-02-15 15:22:00,
2013-02-15 10:42:00,51.0,37.0,-100.00,ENE,69,2.0,7.0,58,0.00,,,0.00,401.000000,,2013-02-15 15:42:00,
2013-02-15 10:52:00,57.0,36.0,-100.00,NW,321,3.0,7.0,46,0.00,,,0.00,545.000000,,2013-02-15 15:52:00,
2013-02-15 11:22:00,57.0,36.0,-100.00,NW,321,3.0,7.0,46,0.00,,,0.00,545.000000,,2013-02-15 16:22:00,
2013-02-15 11:32:00,57.0,36.0,-100.00,NW,321,3.0,7.0,46,0.00,,,0.00,545.000000,,2013-02-15 16:32:00,
2013-02-15 11:42:00,57.0,36.0,-100.00,NW,321,3.0,7.0,46,0.00,,,0.00,545.000000,,2013-02-15 16:42:00,
2013-02-15 11:52:00,63.0,33.0,-100.00,North,349,2.0,9.0,33,0.00,,,0.00,713.000000,,2013-02-15 16:52:00,
2013-02-15 12:11:00,63.0,33.0,-100.00,North,349,2.0,9.0,33,0.00,,,0.00,713.000000,,2013-02-15 17:11:00,
2013-02-15 12:21:00,63.0,33.0,-100.00,North,349,2.0,9.0,33,0.00,,,0.00,713.000000,,2013-02-15 17:21:00,
2013-02-15 12:42:00,63.0,33.0,-100.00,North,349,2.0,9.0,33,0.00,,,0.00,713.000000,,2013-02-15 17:42:00,
2013-02-15 13:12:00,66.0,32.0,-100.00,NNW,332,1.0,7.0,28,0.00,,,0.00,660.000000,,2013-02-15 18:12:00,
2013-02-15 13:22:00,66.0,32.0,-100.00,NNW,332,1.0,7.0,28,0.00,,,0.00,660.000000,,2013-02-15 18:22:00,
2013-02-15 13:52:00,65.0,31.0,-100.00,SSE,159,1.0,8.0,28,0.00,,,0.00,679.000000,,2013-02-15 18:52:00,
2013-02-15 14:22:00,65.0,31.0,-100.00,SSE,159,1.0,8.0,28,0.00,,,0.00,679.000000,,2013-02-15 19:22:00,
2013-02-15 14:32:00,65.0,31.0,-100.00,SSE,159,1.0,8.0,28,0.00,,,0.00,679.000000,,2013-02-15 19:32:00,
2013-02-15 14:42:00,65.0,31.0,-100.00,SSE,159,1.0,8.0,28,0.00,,,0.00,679.000000,,2013-02-15 19:42:00,
2013-02-15 14:52:00,66.0,29.0,-100.00,ENE,63,1.0,23.0,25,0.00,,,0.00,712.000000,,2013-02-15 19:52:00,
2013-02-15 15:22:00,66.0,29.0,-100.00,ENE,63,1.0,23.0,25,0.00,,,0.00,712.000000,,2013-02-15 20:22:00,
2013-02-15 15:32:00,66.0,29.0,-100.00,ENE,63,1.0,23.0,25,0.00,,,0.00,712.000000,,2013-02-15 20:32:00,
2013-02-15 15:42:00,66.0,29.0,-100.00,ENE,63,1.0,23.0,25,0.00,,,0.00,712.000000,,2013-02-15 20:42:00,
2013-02-15 15:52:00,64.0,27.0,-100.00,NNE,29,3.0,9.0,25,0.00,,,0.00,566.000000,,2013-02-15 20:52:00,
2013-02-15 16:11:00,64.0,27.0,-100.00,NNE,29,3.0,9.0,25,0.00,,,0.00,566.000000,,2013-02-15 21:11:00,
2013-02-15 16:22:00,64.0,27.0,-100.00,NNE,29,3.0,9.0,25,0.00,,,0.00,566.000000,,2013-02-15 21:22:00,
2013-02-15 16:32:00,64.0,27.0,-100.00,NNE,29,3.0,9.0,25,0.00,,,0.00,566.000000,,2013-02-15 21:32:00,
2013-02-15 16:42:00,64.0,27.0,-100.00,NNE,29,3.0,9.0,25,0.00,,,0.00,566.000000,,2013-02-15 21:42:00,
2013-02-15 16:52:00,62.0,29.0,-100.00,ENE,62,0.0,7.0,28,0.00,,,0.00,313.000000,,2013-02-15 21:52:00,
2013-02-15 17:22:00,62.0,29.0,-100.00,ENE,62,0.0,7.0,28,0.00,,,0.00,313.000000,,2013-02-15 22:22:00,
2013-02-15 17:32:00,62.0,29.0,-100.00,ENE,62,0.0,7.0,28,0.00,,,0.00,313.000000,,2013-02-15 22:32:00,
2013-02-15 17:42:00,62.0,29.0,-100.00,ENE,62,0.0,7.0,28,0.00,,,0.00,313.000000,,2013-02-15 22:42:00,
2013-02-15 17:52:00,54.0,30.0,-100.00,West,277,0.0,4.0,39,0.00,,,0.00,46.000000,,2013-02-15 22:52:00,
2013-02-15 18:21:00,54.0,30.0,-100.00,West,277,0.0,4.0,39,0.00,,,0.00,46.000000,,2013-02-15 23:21:00,
2013-02-15 18:32:00,54.0,30.0,-100.00,West,277,0.0,4.0,39,0.00,,,0.00,46.000000,,2013-02-15 23:32:00,
2013-02-15 18:42:00,54.0,30.0,-100.00,West,277,0.0,4.0,39,0.00,,,0.00,46.000000,,2013-02-15 23:42:00,
2013-02-15 19:11:00,50.0,31.0,-100.00,WNW,298,0.0,2.0,47,0.00,,,0.00,0.000000,,2013-02-16 00:11:00,
2013-02-15 19:22:00,50.0,31.0,-100.00,WNW,298,0.0,2.0,47,0.00,,,0.00,0.000000,,2013-02-16 00:22:00,
2013-02-15 19:32:00,50.0,31.0,-100.00,WNW,298,0.0,2.0,47,0.00,,,0.00,0.000000,,2013-02-16 00:32:00,
2013-02-15 19:42:00,50.0,31.0,-100.00,WNW,298,0.0,2.0,47,0.00,,,0.00,0.000000,,2013-02-16 00:42:00,
2013-02-15 19:51:00,50.0,31.0,-100.00,WNW,298,0.0,2.0,47,0.00,,,0.00,0.000000,,2013-02-16 00:51:00,
2013-02-15 19:52:00,47.0,29.0,-100.00,WNW,286,0.0,4.0,49,0.00,,,0.00,0.000000,,2013-02-16 00:52:00,
2013-02-15 20:21:00,47.0,29.0,-100.00,WNW,286,0.0,4.0,49,0.00,,,0.00,0.000000,,2013-02-16 01:21:00,
2013-02-15 20:32:00,47.0,29.0,-100.00,WNW,286,0.0,4.0,49,0.00,,,0.00,0.000000,,2013-02-16 01:32:00,
2013-02-15 20:42:00,47.0,29.0,-100.00,WNW,286,0.0,4.0,49,0.00,,,0.00,0.000000,,2013-02-16 01:42:00,
2013-02-15 20:52:00,47.0,31.0,-100.00,WNW,294,0.0,3.0,53,0.00,,,0.00,0.000000,,2013-02-16 01:52:00,
2013-02-15 21:22:00,47.0,31.0,-100.00,WNW,294,0.0,3.0,53,0.00,,,0.00,0.000000,,2013-02-16 02:22:00,
2013-02-15 21:32:00,47.0,31.0,-100.00,WNW,294,0.0,3.0,53,0.00,,,0.00,0.000000,,2013-02-16 02:32:00,
2013-02-15 21:42:00,47.0,31.0,-100.00,WNW,294,0.0,3.0,53,0.00,,,0.00,0.000000,,2013-02-16 02:42:00,
2013-02-15 21:52:00,45.0,32.0,-100.00,WNW,296,0.0,2.0,60,0.00,,,0.00,0.000000,,2013-02-16 02:52:00,
2013-02-15 22:21:00,45.0,32.0,-100.00,WNW,296,0.0,2.0,60,0.00,,,0.00,0.000000,,2013-02-16 03:21:00,
2013-02-15 22:32:00,45.0,32.0,-100.00,WNW,296,0.0,2.0,60,0.00,,,0.00,0.000000,,2013-02-16 03:32:00,
2013-02-15 22:42:00,45.0,32.0,-100.00,WNW,296,0.0,2.0,60,0.00,,,0.00,0.000000,,2013-02-16 03:42:00,
2013-02-15 23:11:00,42.0,32.0,-100.00,NNE,22,3.0,11.0,67,0.00,,,0.00,0.000000,,2013-02-16 04:11:00,
2013-02-15 23:21:00,42.0,32.0,-100.00,NNE,22,3.0,11.0,67,0.00,,,0.00,0.000000,,2013-02-16 04:21:00,
2013-02-15 23:32:00,42.0,32.0,-100.00,NNE,22,3.0,11.0,67,0.00,,,0.00,0.000000,,2013-02-16 04:32:00,
2013-02-15 23:42:00,42.0,32.0,-100.00,NNE,22,3.0,11.0,67,0.00,,,0.00,0.000000,,2013-02-16 04:42:00,
2013-02-15 23:51:00,42.0,32.0,-100.00,NNE,22,3.0,11.0,67,0.00,,,0.00,0.000000,,2013-02-16 04:51:00,
2013-02-15 23:52:00,46.0,33.0,-100.00,East,84,3.0,12.0,60,0.00,,,0.00,0.000000,,2013-02-16 04:52:00,